sensor_id;sensor_type;location;lat;lon;timestamp;P1;durP1;ratioP1;P2;durP2;ratioP2
54919;SDS011;63804;53.120;8.764;2023-03-17T00:00:13;5.57;;;2.33;;
54919;SDS011;63804;53.120;8.764;2023-03-17T00:02:40;5.10;;;2.78;;
54919;SDS011;63804;53.120;8.764;2023-03-17T00:05:20;5.97;;;2.40;;
54919;SDS011;63804;53.120;8.764;2023-03-17T00:07:50;5.68;;;2.60;;
54919;SDS011;63804;53.120;8.764;2023-03-17T00:10:24;6.20;;;2.83;;
54919;SDS011;63804;53.120;8.764;2023-03-17T00:12:51;5.78;;;2.50;;
54919;SDS011;63804;53.120;8.764;2023-03-17T00:15:19;8.23;;;3.03;;
54919;SDS011;63804;53.120;8.764;2023-03-17T00:17:51;6.15;;;2.60;;
54919;SDS011;63804;53.120;8.764;2023-03-17T00:20:21;6.53;;;2.67;;
54919;SDS011;63804;53.120;8.764;2023-03-17T00:22:47;7.05;;;3.00;;
54919;SDS011;63804;53.120;8.764;2023-03-17T00:25:16;7.45;;;2.45;;
54919;SDS011;63804;53.120;8.764;2023-03-17T00:27:57;5.70;;;2.70;;
54919;SDS011;63804;53.120;8.764;2023-03-17T00:30:23;4.78;;;2.33;;
54919;SDS011;63804;53.120;8.764;2023-03-17T00:32:52;6.72;;;2.72;;
54919;SDS011;63804;53.120;8.764;2023-03-17T00:37:47;5.72;;;2.97;;
54919;SDS011;63804;53.120;8.764;2023-03-17T00:40:24;6.85;;;2.72;;
54919;SDS011;63804;53.120;8.764;2023-03-17T00:42:53;8.15;;;2.72;;
54919;SDS011;63804;53.120;8.764;2023-03-17T00:45:19;6.60;;;3.00;;
54919;SDS011;63804;53.120;8.764;2023-03-17T00:47:46;6.85;;;2.83;;
54919;SDS011;63804;53.120;8.764;2023-03-17T00:50:15;4.75;;;2.55;;
54919;SDS011;63804;53.120;8.764;2023-03-17T00:52:43;6.50;;;2.75;;
54919;SDS011;63804;53.120;8.764;2023-03-17T00:55:10;6.18;;;2.60;;
54919;SDS011;63804;53.120;8.764;2023-03-17T00:57:36;7.20;;;2.55;;
54919;SDS011;63804;53.120;8.764;2023-03-17T01:00:04;5.07;;;2.50;;
54919;SDS011;63804;53.120;8.764;2023-03-17T01:02:31;5.32;;;2.60;;
54919;SDS011;63804;53.120;8.764;2023-03-17T01:04:57;7.65;;;2.70;;
54919;SDS011;63804;53.120;8.764;2023-03-17T01:07:22;7.43;;;2.70;;
54919;SDS011;63804;53.120;8.764;2023-03-17T01:09:48;4.63;;;2.65;;
54919;SDS011;63804;53.120;8.764;2023-03-17T01:12:21;5.18;;;2.53;;
54919;SDS011;63804;53.120;8.764;2023-03-17T01:14:46;5.85;;;2.80;;
54919;SDS011;63804;53.120;8.764;2023-03-17T01:17:15;6.70;;;2.90;;
54919;SDS011;63804;53.120;8.764;2023-03-17T01:19:43;5.45;;;2.50;;
54919;SDS011;63804;53.120;8.764;2023-03-17T01:22:09;6.15;;;2.78;;
54919;SDS011;63804;53.120;8.764;2023-03-17T01:24:35;6.68;;;2.80;;
54919;SDS011;63804;53.120;8.764;2023-03-17T01:27:01;7.13;;;3.05;;
54919;SDS011;63804;53.120;8.764;2023-03-17T01:29:27;5.97;;;2.30;;
54919;SDS011;63804;53.120;8.764;2023-03-17T01:31:53;4.78;;;2.50;;
54919;SDS011;63804;53.120;8.764;2023-03-17T01:34:18;6.72;;;2.55;;
54919;SDS011;63804;53.120;8.764;2023-03-17T01:36:44;6.53;;;2.70;;
54919;SDS011;63804;53.120;8.764;2023-03-17T01:39:10;4.78;;;2.45;;
54919;SDS011;63804;53.120;8.764;2023-03-17T01:41:37;5.47;;;2.50;;
54919;SDS011;63804;53.120;8.764;2023-03-17T01:44:04;6.43;;;2.83;;
54919;SDS011;63804;53.120;8.764;2023-03-17T01:46:34;7.30;;;2.70;;
54919;SDS011;63804;53.120;8.764;2023-03-17T01:54:04;6.22;;;2.50;;
54919;SDS011;63804;53.120;8.764;2023-03-17T01:56:35;5.35;;;2.53;;
54919;SDS011;63804;53.120;8.764;2023-03-17T01:59:04;6.45;;;2.92;;
54919;SDS011;63804;53.120;8.764;2023-03-17T02:01:35;6.20;;;2.67;;
54919;SDS011;63804;53.120;8.764;2023-03-17T02:04:03;4.47;;;2.47;;
54919;SDS011;63804;53.120;8.764;2023-03-17T02:06:30;5.35;;;2.50;;
54919;SDS011;63804;53.120;8.764;2023-03-17T02:08:56;7.85;;;2.95;;
54919;SDS011;63804;53.120;8.764;2023-03-17T02:11:23;6.78;;;3.08;;
54919;SDS011;63804;53.120;8.764;2023-03-17T02:13:49;7.32;;;2.50;;
54919;SDS011;63804;53.120;8.764;2023-03-17T02:16:14;7.30;;;3.00;;
54919;SDS011;63804;53.120;8.764;2023-03-17T02:18:41;7.30;;;3.00;;
54919;SDS011;63804;53.120;8.764;2023-03-17T02:24:04;7.32;;;2.95;;
54919;SDS011;63804;53.120;8.764;2023-03-17T02:26:33;6.30;;;2.58;;
54919;SDS011;63804;53.120;8.764;2023-03-17T02:29:00;6.53;;;2.80;;
54919;SDS011;63804;53.120;8.764;2023-03-17T02:31:26;6.18;;;2.80;;
54919;SDS011;63804;53.120;8.764;2023-03-17T02:33:52;7.05;;;3.10;;
54919;SDS011;63804;53.120;8.764;2023-03-17T02:36:18;7.68;;;2.90;;
54919;SDS011;63804;53.120;8.764;2023-03-17T02:38:44;5.80;;;2.50;;
54919;SDS011;63804;53.120;8.764;2023-03-17T02:41:10;6.70;;;2.80;;
54919;SDS011;63804;53.120;8.764;2023-03-17T02:43:36;7.13;;;3.17;;
54919;SDS011;63804;53.120;8.764;2023-03-17T02:46:02;5.68;;;2.70;;
54919;SDS011;63804;53.120;8.764;2023-03-17T02:48:29;5.50;;;2.50;;
54919;SDS011;63804;53.120;8.764;2023-03-17T02:50:56;7.57;;;2.67;;
54919;SDS011;63804;53.120;8.764;2023-03-17T02:53:21;5.22;;;2.58;;
54919;SDS011;63804;53.120;8.764;2023-03-17T02:55:47;5.53;;;2.50;;
54919;SDS011;63804;53.120;8.764;2023-03-17T02:58:13;7.38;;;2.72;;
54919;SDS011;63804;53.120;8.764;2023-03-17T03:00:38;5.57;;;2.60;;
54919;SDS011;63804;53.120;8.764;2023-03-17T03:03:04;7.68;;;2.75;;
54919;SDS011;63804;53.120;8.764;2023-03-17T03:05:30;5.70;;;2.70;;
54919;SDS011;63804;53.120;8.764;2023-03-17T03:07:56;6.32;;;2.80;;
54919;SDS011;63804;53.120;8.764;2023-03-17T03:10:22;5.63;;;2.72;;
54919;SDS011;63804;53.120;8.764;2023-03-17T03:12:48;6.57;;;2.67;;
54919;SDS011;63804;53.120;8.764;2023-03-17T03:15:13;7.82;;;3.13;;
54919;SDS011;63804;53.120;8.764;2023-03-17T03:17:39;5.60;;;2.83;;
54919;SDS011;63804;53.120;8.764;2023-03-17T03:20:06;6.38;;;3.17;;
54919;SDS011;63804;53.120;8.764;2023-03-17T03:22:32;5.25;;;2.45;;
54919;SDS011;63804;53.120;8.764;2023-03-17T03:24:57;7.53;;;2.80;;
54919;SDS011;63804;53.120;8.764;2023-03-17T03:27:23;6.07;;;2.63;;
54919;SDS011;63804;53.120;8.764;2023-03-17T03:29:48;6.85;;;2.78;;
54919;SDS011;63804;53.120;8.764;2023-03-17T03:32:13;5.63;;;2.88;;
54919;SDS011;63804;53.120;8.764;2023-03-17T03:34:39;6.22;;;2.60;;
54919;SDS011;63804;53.120;8.764;2023-03-17T03:37:05;5.18;;;2.70;;
54919;SDS011;63804;53.120;8.764;2023-03-17T03:39:30;8.35;;;2.90;;
54919;SDS011;63804;53.120;8.764;2023-03-17T03:41:56;7.93;;;2.97;;
54919;SDS011;63804;53.120;8.764;2023-03-17T03:44:22;6.35;;;3.10;;
54919;SDS011;63804;53.120;8.764;2023-03-17T03:46:48;6.40;;;3.00;;
54919;SDS011;63804;53.120;8.764;2023-03-17T03:49:14;7.22;;;2.80;;
54919;SDS011;63804;53.120;8.764;2023-03-17T03:51:39;6.22;;;3.00;;
54919;SDS011;63804;53.120;8.764;2023-03-17T03:54:05;7.28;;;3.17;;
54919;SDS011;63804;53.120;8.764;2023-03-17T03:56:31;6.55;;;3.05;;
54919;SDS011;63804;53.120;8.764;2023-03-17T03:58:57;7.88;;;2.90;;
54919;SDS011;63804;53.120;8.764;2023-03-17T04:01:22;9.13;;;3.22;;
54919;SDS011;63804;53.120;8.764;2023-03-17T04:03:48;7.00;;;2.90;;
54919;SDS011;63804;53.120;8.764;2023-03-17T04:06:14;7.43;;;3.08;;
54919;SDS011;63804;53.120;8.764;2023-03-17T04:08:40;7.43;;;3.00;;
54919;SDS011;63804;53.120;8.764;2023-03-17T04:11:05;7.88;;;2.85;;
54919;SDS011;63804;53.120;8.764;2023-03-17T04:13:31;6.93;;;3.20;;
54919;SDS011;63804;53.120;8.764;2023-03-17T04:15:56;6.63;;;2.80;;
54919;SDS011;63804;53.120;8.764;2023-03-17T04:18:22;7.43;;;3.15;;
54919;SDS011;63804;53.120;8.764;2023-03-17T04:20:47;7.70;;;3.05;;
54919;SDS011;63804;53.120;8.764;2023-03-17T04:23:13;6.47;;;2.90;;
54919;SDS011;63804;53.120;8.764;2023-03-17T04:25:38;6.28;;;3.10;;
54919;SDS011;63804;53.120;8.764;2023-03-17T04:28:04;8.23;;;3.03;;
54919;SDS011;63804;53.120;8.764;2023-03-17T04:30:30;5.68;;;2.70;;
54919;SDS011;63804;53.120;8.764;2023-03-17T04:32:56;7.13;;;3.10;;
54919;SDS011;63804;53.120;8.764;2023-03-17T04:35:21;8.05;;;3.22;;
54919;SDS011;63804;53.120;8.764;2023-03-17T04:37:47;7.18;;;2.92;;
54919;SDS011;63804;53.120;8.764;2023-03-17T04:40:13;8.10;;;3.60;;
54919;SDS011;63804;53.120;8.764;2023-03-17T04:42:40;6.60;;;3.20;;
54919;SDS011;63804;53.120;8.764;2023-03-17T04:45:06;7.40;;;3.30;;
54919;SDS011;63804;53.120;8.764;2023-03-17T04:47:33;7.68;;;3.13;;
54919;SDS011;63804;53.120;8.764;2023-03-17T04:49:59;6.75;;;3.00;;
54919;SDS011;63804;53.120;8.764;2023-03-17T04:52:25;6.55;;;3.10;;
54919;SDS011;63804;53.120;8.764;2023-03-17T04:54:57;6.90;;;3.17;;
54919;SDS011;63804;53.120;8.764;2023-03-17T04:57:23;6.43;;;3.25;;
54919;SDS011;63804;53.120;8.764;2023-03-17T04:59:48;7.03;;;3.45;;
54919;SDS011;63804;53.120;8.764;2023-03-17T05:02:14;9.27;;;3.30;;
54919;SDS011;63804;53.120;8.764;2023-03-17T05:04:39;6.10;;;2.92;;
54919;SDS011;63804;53.120;8.764;2023-03-17T05:07:06;7.80;;;3.25;;
54919;SDS011;63804;53.120;8.764;2023-03-17T05:09:31;9.38;;;3.53;;
54919;SDS011;63804;53.120;8.764;2023-03-17T05:11:57;7.80;;;3.53;;
54919;SDS011;63804;53.120;8.764;2023-03-17T05:14:22;8.90;;;3.50;;
54919;SDS011;63804;53.120;8.764;2023-03-17T05:16:48;7.57;;;3.05;;
54919;SDS011;63804;53.120;8.764;2023-03-17T05:19:14;8.32;;;3.17;;
54919;SDS011;63804;53.120;8.764;2023-03-17T05:21:40;7.82;;;3.22;;
54919;SDS011;63804;53.120;8.764;2023-03-17T05:24:06;8.88;;;3.65;;
54919;SDS011;63804;53.120;8.764;2023-03-17T05:26:33;8.75;;;3.65;;
54919;SDS011;63804;53.120;8.764;2023-03-17T05:28:59;8.68;;;3.45;;
54919;SDS011;63804;53.120;8.764;2023-03-17T05:31:24;8.38;;;3.85;;
54919;SDS011;63804;53.120;8.764;2023-03-17T05:33:50;8.90;;;4.20;;
54919;SDS011;63804;53.120;8.764;2023-03-17T05:36:16;9.27;;;4.07;;
54919;SDS011;63804;53.120;8.764;2023-03-17T05:38:42;8.15;;;3.80;;
54919;SDS011;63804;53.120;8.764;2023-03-17T05:41:08;9.63;;;3.85;;
54919;SDS011;63804;53.120;8.764;2023-03-17T05:43:35;8.55;;;4.20;;
54919;SDS011;63804;53.120;8.764;2023-03-17T05:46:01;10.25;;;4.25;;
54919;SDS011;63804;53.120;8.764;2023-03-17T05:48:28;10.68;;;4.43;;
54919;SDS011;63804;53.120;8.764;2023-03-17T05:50:53;10.23;;;4.18;;
54919;SDS011;63804;53.120;8.764;2023-03-17T05:53:19;8.93;;;4.32;;
54919;SDS011;63804;53.120;8.764;2023-03-17T05:55:44;8.18;;;3.58;;
54919;SDS011;63804;53.120;8.764;2023-03-17T05:58:11;8.75;;;4.13;;
54919;SDS011;63804;53.120;8.764;2023-03-17T06:00:36;7.80;;;3.60;;
54919;SDS011;63804;53.120;8.764;2023-03-17T06:03:03;7.50;;;3.60;;
54919;SDS011;63804;53.120;8.764;2023-03-17T06:05:29;9.70;;;3.80;;
54919;SDS011;63804;53.120;8.764;2023-03-17T06:07:55;9.43;;;3.55;;
54919;SDS011;63804;53.120;8.764;2023-03-17T06:10:21;8.73;;;3.65;;
54919;SDS011;63804;53.120;8.764;2023-03-17T06:12:47;8.13;;;3.55;;
54919;SDS011;63804;53.120;8.764;2023-03-17T06:15:13;9.15;;;3.53;;
54919;SDS011;63804;53.120;8.764;2023-03-17T06:17:39;9.07;;;4.00;;
54919;SDS011;63804;53.120;8.764;2023-03-17T06:20:04;9.30;;;3.88;;
54919;SDS011;63804;53.120;8.764;2023-03-17T06:22:30;9.23;;;4.05;;
54919;SDS011;63804;53.120;8.764;2023-03-17T06:24:56;9.13;;;4.13;;
54919;SDS011;63804;53.120;8.764;2023-03-17T06:27:22;9.35;;;4.20;;
54919;SDS011;63804;53.120;8.764;2023-03-17T06:29:47;8.90;;;4.15;;
54919;SDS011;63804;53.120;8.764;2023-03-17T06:32:13;8.65;;;3.95;;
54919;SDS011;63804;53.120;8.764;2023-03-17T06:34:38;10.65;;;4.05;;
54919;SDS011;63804;53.120;8.764;2023-03-17T06:37:07;8.25;;;3.45;;
54919;SDS011;63804;53.120;8.764;2023-03-17T06:39:34;8.60;;;3.60;;
54919;SDS011;63804;53.120;8.764;2023-03-17T06:42:01;9.10;;;4.15;;
54919;SDS011;63804;53.120;8.764;2023-03-17T06:44:27;8.13;;;3.65;;
54919;SDS011;63804;53.120;8.764;2023-03-17T06:46:53;10.05;;;4.10;;
54919;SDS011;63804;53.120;8.764;2023-03-17T06:49:18;8.77;;;3.92;;
54919;SDS011;63804;53.120;8.764;2023-03-17T06:51:50;7.63;;;3.60;;
54919;SDS011;63804;53.120;8.764;2023-03-17T06:54:16;8.63;;;3.78;;
54919;SDS011;63804;53.120;8.764;2023-03-17T06:56:42;7.90;;;4.00;;
54919;SDS011;63804;53.120;8.764;2023-03-17T06:59:09;9.68;;;3.67;;
54919;SDS011;63804;53.120;8.764;2023-03-17T07:01:35;9.15;;;3.55;;
54919;SDS011;63804;53.120;8.764;2023-03-17T07:04:02;10.13;;;4.03;;
54919;SDS011;63804;53.120;8.764;2023-03-17T07:06:28;8.27;;;3.58;;
54919;SDS011;63804;53.120;8.764;2023-03-17T07:08:53;12.07;;;4.40;;
54919;SDS011;63804;53.120;8.764;2023-03-17T07:11:19;10.20;;;4.03;;
54919;SDS011;63804;53.120;8.764;2023-03-17T07:13:44;9.63;;;4.07;;
54919;SDS011;63804;53.120;8.764;2023-03-17T07:16:10;9.15;;;3.85;;
54919;SDS011;63804;53.120;8.764;2023-03-17T07:18:39;10.88;;;4.63;;
54919;SDS011;63804;53.120;8.764;2023-03-17T07:21:04;8.80;;;3.92;;
54919;SDS011;63804;53.120;8.764;2023-03-17T07:23:31;7.63;;;3.85;;
54919;SDS011;63804;53.120;8.764;2023-03-17T07:25:56;8.60;;;4.05;;
54919;SDS011;63804;53.120;8.764;2023-03-17T07:28:22;9.30;;;4.05;;
54919;SDS011;63804;53.120;8.764;2023-03-17T07:30:48;10.27;;;4.45;;
54919;SDS011;63804;53.120;8.764;2023-03-17T07:33:15;10.18;;;3.85;;
54919;SDS011;63804;53.120;8.764;2023-03-17T07:35:42;9.95;;;3.88;;
54919;SDS011;63804;53.120;8.764;2023-03-17T07:38:08;10.65;;;4.03;;
54919;SDS011;63804;53.120;8.764;2023-03-17T07:40:34;8.30;;;3.95;;
54919;SDS011;63804;53.120;8.764;2023-03-17T07:43:00;8.63;;;3.90;;
54919;SDS011;63804;53.120;8.764;2023-03-17T07:45:26;8.93;;;4.60;;
54919;SDS011;63804;53.120;8.764;2023-03-17T07:47:52;9.05;;;3.90;;
54919;SDS011;63804;53.120;8.764;2023-03-17T07:50:18;9.95;;;4.07;;
54919;SDS011;63804;53.120;8.764;2023-03-17T07:52:44;8.77;;;3.88;;
54919;SDS011;63804;53.120;8.764;2023-03-17T07:55:10;8.02;;;4.20;;
54919;SDS011;63804;53.120;8.764;2023-03-17T07:57:36;7.30;;;3.90;;
54919;SDS011;63804;53.120;8.764;2023-03-17T08:00:03;8.15;;;4.10;;
54919;SDS011;63804;53.120;8.764;2023-03-17T08:02:37;7.57;;;3.92;;
54919;SDS011;63804;53.120;8.764;2023-03-17T08:05:03;9.02;;;4.47;;
54919;SDS011;63804;53.120;8.764;2023-03-17T08:07:32;7.93;;;3.80;;
54919;SDS011;63804;53.120;8.764;2023-03-17T08:09:57;9.02;;;4.47;;
54919;SDS011;63804;53.120;8.764;2023-03-17T08:12:24;9.00;;;4.20;;
54919;SDS011;63804;53.120;8.764;2023-03-17T08:14:49;10.25;;;3.83;;
54919;SDS011;63804;53.120;8.764;2023-03-17T08:17:15;8.23;;;4.18;;
54919;SDS011;63804;53.120;8.764;2023-03-17T08:19:41;9.57;;;4.22;;
54919;SDS011;63804;53.120;8.764;2023-03-17T08:22:08;8.27;;;4.43;;
54919;SDS011;63804;53.120;8.764;2023-03-17T08:24:34;8.32;;;4.13;;
54919;SDS011;63804;53.120;8.764;2023-03-17T08:27:00;10.30;;;4.30;;
54919;SDS011;63804;53.120;8.764;2023-03-17T08:29:25;9.23;;;4.43;;
54919;SDS011;63804;53.120;8.764;2023-03-17T08:31:52;10.40;;;4.38;;
54919;SDS011;63804;53.120;8.764;2023-03-17T08:34:17;11.13;;;3.95;;
54919;SDS011;63804;53.120;8.764;2023-03-17T08:36:43;10.45;;;3.80;;
54919;SDS011;63804;53.120;8.764;2023-03-17T08:39:08;8.52;;;3.90;;
54919;SDS011;63804;53.120;8.764;2023-03-17T08:41:34;8.93;;;4.10;;
54919;SDS011;63804;53.120;8.764;2023-03-17T08:44:01;9.95;;;4.18;;
54919;SDS011;63804;53.120;8.764;2023-03-17T08:46:29;8.75;;;3.80;;
54919;SDS011;63804;53.120;8.764;2023-03-17T08:48:56;9.18;;;3.88;;
54919;SDS011;63804;53.120;8.764;2023-03-17T08:51:24;9.15;;;3.95;;
54919;SDS011;63804;53.120;8.764;2023-03-17T08:53:51;9.48;;;4.20;;
54919;SDS011;63804;53.120;8.764;2023-03-17T08:56:19;7.05;;;3.80;;
54919;SDS011;63804;53.120;8.764;2023-03-17T08:58:45;8.35;;;3.95;;
54919;SDS011;63804;53.120;8.764;2023-03-17T09:01:11;8.73;;;3.97;;
54919;SDS011;63804;53.120;8.764;2023-03-17T09:03:38;7.80;;;3.85;;
54919;SDS011;63804;53.120;8.764;2023-03-17T09:06:05;8.23;;;3.88;;
54919;SDS011;63804;53.120;8.764;2023-03-17T09:08:32;10.40;;;4.10;;
54919;SDS011;63804;53.120;8.764;2023-03-17T09:10:59;8.63;;;4.13;;
54919;SDS011;63804;53.120;8.764;2023-03-17T09:13:26;10.80;;;4.30;;
54919;SDS011;63804;53.120;8.764;2023-03-17T09:15:52;10.68;;;4.55;;
54919;SDS011;63804;53.120;8.764;2023-03-17T09:18:18;8.57;;;3.95;;
54919;SDS011;63804;53.120;8.764;2023-03-17T09:20:43;11.07;;;4.28;;
54919;SDS011;63804;53.120;8.764;2023-03-17T09:23:09;7.57;;;3.85;;
54919;SDS011;63804;53.120;8.764;2023-03-17T09:25:36;8.90;;;4.32;;
54919;SDS011;63804;53.120;8.764;2023-03-17T09:28:03;8.40;;;4.30;;
54919;SDS011;63804;53.120;8.764;2023-03-17T09:30:31;8.63;;;4.03;;
54919;SDS011;63804;53.120;8.764;2023-03-17T09:32:57;8.00;;;4.30;;
54919;SDS011;63804;53.120;8.764;2023-03-17T09:35:23;8.95;;;4.30;;
54919;SDS011;63804;53.120;8.764;2023-03-17T09:37:49;10.18;;;3.90;;
54919;SDS011;63804;53.120;8.764;2023-03-17T09:40:16;8.45;;;4.32;;
54919;SDS011;63804;53.120;8.764;2023-03-17T09:45:50;9.40;;;4.45;;
54919;SDS011;63804;53.120;8.764;2023-03-17T09:50:49;8.18;;;4.25;;
54919;SDS011;63804;53.120;8.764;2023-03-17T09:53:18;8.07;;;4.03;;
54919;SDS011;63804;53.120;8.764;2023-03-17T09:55:50;9.65;;;4.25;;
54919;SDS011;63804;53.120;8.764;2023-03-17T09:58:19;8.48;;;3.70;;
54919;SDS011;63804;53.120;8.764;2023-03-17T10:00:52;7.85;;;3.83;;
54919;SDS011;63804;53.120;8.764;2023-03-17T10:03:17;7.80;;;3.63;;
54919;SDS011;63804;53.120;8.764;2023-03-17T10:05:43;9.05;;;3.90;;
54919;SDS011;63804;53.120;8.764;2023-03-17T10:08:23;9.13;;;3.80;;
54919;SDS011;63804;53.120;8.764;2023-03-17T10:19:13;8.73;;;3.38;;
54919;SDS011;63804;53.120;8.764;2023-03-17T10:21:51;7.32;;;3.13;;
54919;SDS011;63804;53.120;8.764;2023-03-17T10:24:22;7.05;;;3.03;;
54919;SDS011;63804;53.120;8.764;2023-03-17T10:26:50;8.57;;;3.50;;
54919;SDS011;63804;53.120;8.764;2023-03-17T10:29:18;8.05;;;3.55;;
54919;SDS011;63804;53.120;8.764;2023-03-17T10:31:46;6.70;;;3.00;;
54919;SDS011;63804;53.120;8.764;2023-03-17T10:36:44;7.38;;;3.35;;
54919;SDS011;63804;53.120;8.764;2023-03-17T10:39:14;8.18;;;3.50;;
54919;SDS011;63804;53.120;8.764;2023-03-17T10:44:40;10.88;;;3.17;;
54919;SDS011;63804;53.120;8.764;2023-03-17T10:47:28;8.98;;;3.50;;
54919;SDS011;63804;53.120;8.764;2023-03-17T10:49:56;7.50;;;3.50;;
54919;SDS011;63804;53.120;8.764;2023-03-17T10:52:53;8.05;;;3.28;;
54919;SDS011;63804;53.120;8.764;2023-03-17T10:57:58;6.57;;;3.60;;
54919;SDS011;63804;53.120;8.764;2023-03-17T11:00:28;8.10;;;3.45;;
54919;SDS011;63804;53.120;8.764;2023-03-17T11:03:01;7.40;;;3.45;;
54919;SDS011;63804;53.120;8.764;2023-03-17T11:08:37;7.65;;;3.55;;
54919;SDS011;63804;53.120;8.764;2023-03-17T11:11:25;7.97;;;3.90;;
54919;SDS011;63804;53.120;8.764;2023-03-17T11:16:28;8.57;;;3.55;;
54919;SDS011;63804;53.120;8.764;2023-03-17T11:18:58;8.32;;;3.95;;
54919;SDS011;63804;53.120;8.764;2023-03-17T11:24:28;9.88;;;3.17;;
54919;SDS011;63804;53.120;8.764;2023-03-17T11:38:20;11.18;;;3.47;;
54919;SDS011;63804;53.120;8.764;2023-03-17T11:43:41;7.97;;;3.47;;
54919;SDS011;63804;53.120;8.764;2023-03-17T11:46:28;7.63;;;3.42;;
54919;SDS011;63804;53.120;8.764;2023-03-17T11:51:35;8.05;;;3.58;;
54919;SDS011;63804;53.120;8.764;2023-03-17T12:02:02;7.85;;;3.78;;
54919;SDS011;63804;53.120;8.764;2023-03-17T12:04:46;7.45;;;3.45;;
54919;SDS011;63804;53.120;8.764;2023-03-17T12:07:34;9.10;;;3.47;;
54919;SDS011;63804;53.120;8.764;2023-03-17T12:12:42;10.93;;;3.78;;
54919;SDS011;63804;53.120;8.764;2023-03-17T12:15:18;8.52;;;3.65;;
54919;SDS011;63804;53.120;8.764;2023-03-17T12:17:55;8.23;;;3.55;;
54919;SDS011;63804;53.120;8.764;2023-03-17T12:23:15;9.38;;;3.67;;
54919;SDS011;63804;53.120;8.764;2023-03-17T12:26:04;8.82;;;3.83;;
54919;SDS011;63804;53.120;8.764;2023-03-17T12:28:53;7.00;;;3.60;;
54919;SDS011;63804;53.120;8.764;2023-03-17T12:31:30;7.60;;;3.55;;
54919;SDS011;63804;53.120;8.764;2023-03-17T12:34:00;7.82;;;3.60;;
54919;SDS011;63804;53.120;8.764;2023-03-17T12:36:30;9.18;;;4.18;;
54919;SDS011;63804;53.120;8.764;2023-03-17T12:39:05;9.40;;;4.03;;
54919;SDS011;63804;53.120;8.764;2023-03-17T12:55:29;7.25;;;3.65;;
54919;SDS011;63804;53.120;8.764;2023-03-17T12:58:01;8.45;;;3.60;;
54919;SDS011;63804;53.120;8.764;2023-03-17T13:00:33;8.48;;;3.90;;
54919;SDS011;63804;53.120;8.764;2023-03-17T13:03:21;10.32;;;4.00;;
54919;SDS011;63804;53.120;8.764;2023-03-17T13:05:50;8.25;;;3.92;;
54919;SDS011;63804;53.120;8.764;2023-03-17T13:08:29;9.50;;;3.90;;
54919;SDS011;63804;53.120;8.764;2023-03-17T13:16:40;10.02;;;4.40;;
54919;SDS011;63804;53.120;8.764;2023-03-17T13:19:11;10.75;;;4.38;;
54919;SDS011;63804;53.120;8.764;2023-03-17T13:21:42;10.15;;;4.28;;
54919;SDS011;63804;53.120;8.764;2023-03-17T13:27:40;9.10;;;4.53;;
54919;SDS011;63804;53.120;8.764;2023-03-17T13:29:57;8.98;;;3.90;;
54919;SDS011;63804;53.120;8.764;2023-03-17T13:32:43;10.23;;;4.43;;
54919;SDS011;63804;53.120;8.764;2023-03-17T13:51:57;10.98;;;4.43;;
54919;SDS011;63804;53.120;8.764;2023-03-17T13:54:32;9.70;;;4.28;;
54919;SDS011;63804;53.120;8.764;2023-03-17T14:00:06;10.60;;;4.25;;
54919;SDS011;63804;53.120;8.764;2023-03-17T14:02:43;10.98;;;4.38;;
54919;SDS011;63804;53.120;8.764;2023-03-17T14:05:20;9.95;;;4.45;;
54919;SDS011;63804;53.120;8.764;2023-03-17T14:08:00;8.75;;;4.53;;
54919;SDS011;63804;53.120;8.764;2023-03-17T14:10:29;9.40;;;4.40;;
54919;SDS011;63804;53.120;8.764;2023-03-17T14:13:23;10.63;;;4.18;;
54919;SDS011;63804;53.120;8.764;2023-03-17T14:16:05;10.10;;;4.40;;
54919;SDS011;63804;53.120;8.764;2023-03-17T14:21:41;8.90;;;4.35;;
54919;SDS011;63804;53.120;8.764;2023-03-17T14:24:17;11.98;;;4.68;;
54919;SDS011;63804;53.120;8.764;2023-03-17T14:26:43;19.27;;;4.80;;
54919;SDS011;63804;53.120;8.764;2023-03-17T14:29:09;12.05;;;5.25;;
54919;SDS011;63804;53.120;8.764;2023-03-17T14:31:40;8.30;;;4.32;;
54919;SDS011;63804;53.120;8.764;2023-03-17T14:34:11;11.23;;;5.03;;
54919;SDS011;63804;53.120;8.764;2023-03-17T14:36:38;9.23;;;4.68;;
54919;SDS011;63804;53.120;8.764;2023-03-17T14:39:05;8.70;;;4.43;;
54919;SDS011;63804;53.120;8.764;2023-03-17T14:41:32;10.43;;;4.85;;
54919;SDS011;63804;53.120;8.764;2023-03-17T14:43:58;11.48;;;5.10;;
54919;SDS011;63804;53.120;8.764;2023-03-17T14:46:35;10.43;;;4.53;;
54919;SDS011;63804;53.120;8.764;2023-03-17T14:49:04;12.63;;;4.95;;
54919;SDS011;63804;53.120;8.764;2023-03-17T14:51:36;9.68;;;4.90;;
54919;SDS011;63804;53.120;8.764;2023-03-17T14:54:12;10.18;;;4.93;;
54919;SDS011;63804;53.120;8.764;2023-03-17T14:56:41;8.32;;;4.38;;
54919;SDS011;63804;53.120;8.764;2023-03-17T14:59:16;9.00;;;4.63;;
54919;SDS011;63804;53.120;8.764;2023-03-17T15:01:54;9.60;;;4.72;;
54919;SDS011;63804;53.120;8.764;2023-03-17T15:04:25;11.93;;;5.13;;
54919;SDS011;63804;53.120;8.764;2023-03-17T15:06:56;10.75;;;4.72;;
54919;SDS011;63804;53.120;8.764;2023-03-17T15:09:28;10.25;;;4.88;;
54919;SDS011;63804;53.120;8.764;2023-03-17T15:14:36;10.63;;;5.20;;
54919;SDS011;63804;53.120;8.764;2023-03-17T15:17:05;11.82;;;4.65;;
54919;SDS011;63804;53.120;8.764;2023-03-17T15:19:39;9.77;;;4.53;;
54919;SDS011;63804;53.120;8.764;2023-03-17T15:22:24;10.13;;;4.82;;
54919;SDS011;63804;53.120;8.764;2023-03-17T15:25:15;10.30;;;5.18;;
54919;SDS011;63804;53.120;8.764;2023-03-17T15:27:48;11.15;;;4.95;;
54919;SDS011;63804;53.120;8.764;2023-03-17T15:30:15;10.48;;;4.80;;
54919;SDS011;63804;53.120;8.764;2023-03-17T15:32:41;11.38;;;4.93;;
54919;SDS011;63804;53.120;8.764;2023-03-17T15:35:09;14.88;;;4.57;;
54919;SDS011;63804;53.120;8.764;2023-03-17T15:37:36;12.40;;;5.07;;
54919;SDS011;63804;53.120;8.764;2023-03-17T15:40:02;11.10;;;5.40;;
54919;SDS011;63804;53.120;8.764;2023-03-17T15:42:30;11.45;;;4.93;;
54919;SDS011;63804;53.120;8.764;2023-03-17T15:44:58;10.90;;;5.05;;
54919;SDS011;63804;53.120;8.764;2023-03-17T15:47:25;11.07;;;4.93;;
54919;SDS011;63804;53.120;8.764;2023-03-17T15:49:53;11.20;;;5.00;;
54919;SDS011;63804;53.120;8.764;2023-03-17T15:52:23;10.23;;;5.28;;
54919;SDS011;63804;53.120;8.764;2023-03-17T15:54:53;11.45;;;5.15;;
54919;SDS011;63804;53.120;8.764;2023-03-17T15:57:20;10.15;;;4.95;;
54919;SDS011;63804;53.120;8.764;2023-03-17T15:59:46;12.40;;;5.57;;
54919;SDS011;63804;53.120;8.764;2023-03-17T16:02:23;10.45;;;5.13;;
54919;SDS011;63804;53.120;8.764;2023-03-17T16:04:51;12.40;;;5.28;;
54919;SDS011;63804;53.120;8.764;2023-03-17T16:07:18;16.88;;;6.38;;
54919;SDS011;63804;53.120;8.764;2023-03-17T16:09:43;14.77;;;6.63;;
54919;SDS011;63804;53.120;8.764;2023-03-17T16:12:10;13.88;;;7.00;;
54919;SDS011;63804;53.120;8.764;2023-03-17T16:14:36;14.77;;;7.70;;
54919;SDS011;63804;53.120;8.764;2023-03-17T16:17:02;17.02;;;8.40;;
54919;SDS011;63804;53.120;8.764;2023-03-17T16:19:29;16.40;;;6.97;;
54919;SDS011;63804;53.120;8.764;2023-03-17T16:21:54;14.25;;;5.95;;
54919;SDS011;63804;53.120;8.764;2023-03-17T16:24:21;11.65;;;5.70;;
54919;SDS011;63804;53.120;8.764;2023-03-17T16:26:49;13.48;;;5.80;;
54919;SDS011;63804;53.120;8.764;2023-03-17T16:29:15;10.45;;;5.60;;
54919;SDS011;63804;53.120;8.764;2023-03-17T16:31:45;12.80;;;5.78;;
54919;SDS011;63804;53.120;8.764;2023-03-17T16:34:17;12.50;;;5.85;;
54919;SDS011;63804;53.120;8.764;2023-03-17T16:36:45;14.48;;;6.07;;
54919;SDS011;63804;53.120;8.764;2023-03-17T16:39:14;12.77;;;5.65;;
54919;SDS011;63804;53.120;8.764;2023-03-17T16:41:43;12.55;;;5.80;;
54919;SDS011;63804;53.120;8.764;2023-03-17T16:44:11;10.50;;;5.03;;
54919;SDS011;63804;53.120;8.764;2023-03-17T16:46:37;11.68;;;5.75;;
54919;SDS011;63804;53.120;8.764;2023-03-17T16:49:03;12.73;;;6.32;;
54919;SDS011;63804;53.120;8.764;2023-03-17T16:51:29;13.45;;;6.13;;